Address 0x4542b1c810fd07d78ac9e0850ef8fd36555095e8 5

 
 
Txn Hash Method
Block
From
To
Value [Txn Fee]
0x74c69f71232d096442093fc4fa10db0060793f0f6e7061871caffd53f8cda5ae-109439942021-09-15 19:34:171 day 16 hrs agoBami DeFi: DeployerOUTManga Token: Deployer0.01 BNB0.00021004
0x962ebab85a904017acc0e445a0043cbc13dd4cd10a47b8d2e8986dfce65d04e3-109439812021-09-15 19:33:381 day 16 hrs agoBami DeFi: DeployerOUTManga Token: Deployer0.01 BNB0.00021004
0xd98da8e7a8652e6b505e915e318ba438daa18dfc943e2288cfa5021eb7d48c04-109438982021-09-15 19:29:291 day 17 hrs agoBami DeFi: DeployerOUTManga Token: Deployer0.01 BNB0.00021004
0x36a6fc13b099a9f4e30b41540d29ed18903ef304dfb23b6b279a443cc4506e92-109438702021-09-15 19:28:051 day 17 hrs agoBami DeFi: DeployerOUTManga Token: Deployer0.002 BNB0.00021004
0x5b43e5ee366965b5402a4f437135c098239475436a15d3c68c90f44c8f7e4e40-109438032021-09-15 19:24:441 day 17 hrs agoBami DeFi: DeployerOUTManga Token: Deployer0.002 BNB0.00021004
0x29b32c50b3dd88607c476b11898b5b9d7f6aba67159f72e7824eb93baeeff15c-109437352021-09-15 19:21:201 day 17 hrs agoBami DeFi: DeployerOUTManga Token: Deployer0.002 BNB0.00021004
0x9c7da42b4279931e63ed23beb3bfeb531716bcf264d65acdf3d2d02488a62f92-109437112021-09-15 19:20:081 day 17 hrs agoBami DeFi: DeployerOUTManga Token: Deployer0.002 BNB0.00021004
0x2ba683e4bbe4fa1b0dd744fbce8c90aef6c37692ca8d519c84fa4e1aba6c40f6-109437052021-09-15 19:19:501 day 17 hrs agoBami DeFi: DeployerOUTManga Token: Deployer0.002 BNB0.00021004
0x55534e0eb3d7e8b81dea44c2c656d48eaaf83ead32a72ae54fe2e5c08af4fc01-109437002021-09-15 19:19:351 day 17 hrs agoBami DeFi: DeployerOUTManga Token: Deployer0.002 BNB0.00021004
0x55b4d222b23ddf855e20d9fc851c51c26b358e832df6027515e2904c53c4e836-109436922021-09-15 19:19:111 day 17 hrs agoBami DeFi: DeployerOUTManga Token: Deployer0.002 BNB0.00021004
0x8c92d8cbded4c3eddfe7885229d05203f7ecb71416071a6c9d3e347781bb7947-109436542021-09-15 19:17:171 day 17 hrs agoBami DeFi: DeployerOUTManga Token: Deployer0.002 BNB0.00021004
0x27c3f93c1b577a07012e259aaf1bf798fa4575118871e84086e96392a8ab3644-109434092021-09-15 19:05:021 day 17 hrs agoBami DeFi: DeployerOUTManga Token: Deployer0.004 BNB0.00021004
0x09099738bb78d33d256f3e1160727aca2e437bea54659f54e694432a870d2569-109434052021-09-15 19:04:501 day 17 hrs agoBami DeFi: DeployerOUTManga Token: Deployer0.004 BNB0.00021004
0xe0a9f5cd35ffcd9f2d581e581c17d46938ee6e9fc1cdb39f28d8d91fe468d95d-109434012021-09-15 19:04:381 day 17 hrs agoBami DeFi: DeployerOUTManga Token: Deployer0.004 BNB0.00021004
0xc1d378f79d67dd05c6747f547b1d30d674661fab499be1aef6230dbaeadfa2c5-109433952021-09-15 19:04:201 day 17 hrs agoBami DeFi: DeployerOUTManga Token: Deployer0.004 BNB0.00021004
0x5dda3cd36eb115fa483f918c699e97fb442ec06c911bf5e2df31d4fdc13de98b-109432872021-09-15 18:58:561 day 17 hrs agoBami DeFi: DeployerOUTManga Token: Deployer0.004 BNB0.00021004
0xb8e7303ffca1167cd10ff24ec71e90bcb80a862cf2762c12a929e9e9b42391aeTransfer109089012021-09-14 14:10:592 days 22 hrs agoBami DeFi: DeployerOUT0x2bd78fd46c3f2fcbfef2aef9ca52929bb14cc7150.001 BNB0.000105
0x22c0e9f81ada6517ff396df57f076a4d4c5f0f8f8c7020e2aa8598838ac8bf91Transfer106183532021-09-04 10:06:2013 days 2 hrs agoBami DeFi: DeployerOUT0x268f7a3277a151fc2acea91df3d857809f60e3be0.1 BNB0.000105
0x17f2cd29f226ebad9c4f8c1ca48a0e7c9daa9ba852b365f6ad66db6e9f015646Transfer102093492021-08-21 1:33:4227 days 10 hrs agoBami DeFi: DeployerOUT CryptoZoon: ZOON Token0 BNB0.00011993
0x01aa57ef5a5ba800fc50aa9c12ca7b9f0c6d7da657acf93320f5c29829a01fa20xdd78d136102093322021-08-21 1:32:5027 days 10 hrs agoBami DeFi: DeployerOUT 0xf70c08a428f300c7f3e3f09217211d21f7a504100 BNB0.00036246
0x68ed6375b31936a2082478629a13916ee0c99e2cc1ff24d7b020efb360dbac6bPlace Order102090462021-08-21 1:18:3227 days 11 hrs agoBami DeFi: DeployerOUT 0xf62b6a53a2cd03a61fe83db00087d20b3b51cf9c0 BNB0.00224397
0x17c9e9c3aa2d95d27d1084bd4ac9f45215bca3d25dcdf904fa21d5f35b0ccfa8Battle102069262021-08-20 23:30:0627 days 13 hrs agoBami DeFi: DeployerOUT 0xf70c08a428f300c7f3e3f09217211d21f7a504100 BNB0.00091694
0xc95b503330b2587b92b917da0ae1c6fc73dc13c2dff85bed0ebae93c0bd9f7c7Battle102021172021-08-20 19:29:3627 days 17 hrs agoBami DeFi: DeployerOUT 0xf70c08a428f300c7f3e3f09217211d21f7a504100 BNB0.00091694
0xf853bfa254a879c797a44af44101fb49a122df839c76d12547044f2dfa2d3737Battle101973832021-08-20 15:29:0727 days 21 hrs agoBami DeFi: DeployerOUT 0xf70c08a428f300c7f3e3f09217211d21f7a504100 BNB0.00088148
0x017bcc1c58f267bafeeea76ecfee9f52277f72ac0b07a2157d93c07d32309841Battle101926752021-08-20 11:28:3628 days 1 hr agoBami DeFi: DeployerOUT 0xf70c08a428f300c7f3e3f09217211d21f7a504100 BNB0.00091694
[ Download CSV Export 

OVERVIEW

Deployer address for Bami DeFi.

Latest 4 internal transactions
Parent Txn Hash Block From To Value
0x744fb5c1bf31d942e8548a513fa492ee8a9e5f45c9c1bdf233b3cb8c839ed43299782292021-08-12 23:38:2335 days 12 hrs ago 0xbdb6ca086b15db5aad9b633c6e9ba4201cdae297Bami DeFi: Deployer0.00020008 BNB
0x766f874b092f5f97a27d2b49e3f3c38a1333aa1c2f422497c7814fc5c073deaf63910432021-04-08 16:30:22161 days 20 hrs ago PancakeSwap: RouterBami DeFi: Deployer0.043206184203038759 BNB
0x8e3ac8593baa5b8378893fd201ee657a2cf51646e9391e358792ad4810cff94e59084222021-03-22 17:00:41178 days 19 hrs ago PancakeSwap: RouterBami DeFi: Deployer0.000001346309858277 BNB
0xaaccdebd7c4e9fc034f1891f7c0c80cfcd001114b2103bf3d6e3e7191af0a18459083612021-03-22 16:57:38178 days 19 hrs ago PancakeSwap: RouterBami DeFi: Deployer0.000166045480295474 BNB
[ Download CSV Export 
Loading

Contract Name:
0 BNB

Compiler Version
0

Optimization Enabled:
0 BNB

Other Settings:
-NA-
Block Transaction Gas Used Reward
Age Block Fee Address BC Fee Address Voting Power Jailed Incoming
Block Uncle Number Difficulty Gas Used Reward
Loading
Loading
Make sure to use the "Vote Down" button for any spammy posts, and the "Vote Up" for interesting conversations.